createdAt,value
2019-03-24T00:00:11.456Z,100000.16
2019-03-24T00:02:40.001Z,99993.50
2019-03-24T00:05:08.567Z,99997.62
2019-03-24T00:07:37.033Z,99997.89
2019-03-24T00:10:09.062Z,100000.69
2019-03-24T00:12:37.529Z,99997.23
2019-03-24T00:15:08.178Z,99996.11
2019-03-24T00:17:36.720Z,100000.20
2019-03-24T00:20:07.254Z,99990.87
2019-03-24T00:22:35.734Z,99992.05
2019-03-24T00:25:08.344Z,99992.96
2019-03-24T00:27:36.826Z,99987.52
2019-03-24T00:30:10.195Z,99986.58
2019-03-24T00:32:38.661Z,99990.47
2019-03-24T00:35:08.308Z,99990.98
2019-03-24T00:37:36.778Z,99986.36
2019-03-24T00:40:07.023Z,99988.25
2019-03-24T00:42:35.488Z,99986.67
2019-03-24T00:45:06.436Z,99985.45
2019-03-24T00:47:34.907Z,99984.04
2019-03-24T00:50:05.343Z,99983.98
2019-03-24T00:52:33.821Z,99973.25
2019-03-24T00:55:02.319Z,99981.47
2019-03-24T00:57:30.790Z,99981.77
2019-03-24T00:59:59.290Z,99978.03
2019-03-24T01:02:27.761Z,99979.26
2019-03-24T01:04:56.254Z,99985.69
2019-03-24T01:07:24.801Z,99978.28
2019-03-24T01:09:53.301Z,99981.58
2019-03-24T01:12:21.789Z,99978.39
2019-03-24T01:14:50.349Z,99978.95
2019-03-24T01:17:18.783Z,99980.19
2019-03-24T01:19:47.346Z,99976.77
2019-03-24T01:22:15.797Z,99983.63
2019-03-24T01:24:44.324Z,99981.41
2019-03-24T01:27:12.876Z,99982.02
2019-03-24T01:29:41.389Z,99982.06
2019-03-24T01:32:09.869Z,99974.61
2019-03-24T01:34:38.378Z,99976.58
2019-03-24T01:37:06.883Z,99975.17
2019-03-24T01:39:35.394Z,99979.39
2019-03-24T01:42:03.971Z,99982.02
2019-03-24T01:44:32.464Z,99973.09
2019-03-24T01:47:01.007Z,99968.26
2019-03-24T01:49:29.509Z,99967.64
2019-03-24T01:51:58.003Z,99974.34
2019-03-24T01:54:26.464Z,99978.37
2019-03-24T01:56:54.953Z,99969.63
2019-03-24T01:59:23.426Z,99967.09
2019-03-24T02:01:51.918Z,99965.63
2019-03-24T02:04:20.391Z,99962.00
2019-03-24T02:06:48.876Z,99954.73
2019-03-24T02:09:17.343Z,99959.11
2019-03-24T02:11:45.830Z,99957.37
2019-03-24T02:14:14.297Z,99959.11
2019-03-24T02:16:42.832Z,99955.00
2019-03-24T02:19:11.266Z,99950.85
2019-03-24T02:21:39.758Z,99952.56
2019-03-24T02:24:08.224Z,99953.30
2019-03-24T02:26:36.719Z,99954.62
2019-03-24T02:29:05.190Z,99957.59
2019-03-24T02:31:33.686Z,99961.95
2019-03-24T02:34:02.151Z,99959.03
2019-03-24T02:36:30.639Z,99964.58
2019-03-24T02:38:59.101Z,99959.34
2019-03-24T02:41:27.597Z,99959.55
2019-03-24T02:43:56.074Z,99961.70
2019-03-24T02:46:25.215Z,99956.28
2019-03-24T02:48:53.805Z,99953.57
2019-03-24T02:51:22.300Z,99954.97
2019-03-24T02:53:50.770Z,99947.98
2019-03-24T02:56:19.266Z,99950.77
2019-03-24T02:58:47.724Z,99945.05
2019-03-24T03:01:16.219Z,99944.89
2019-03-24T03:03:44.715Z,99942.36
2019-03-24T03:06:13.194Z,99944.09
2019-03-24T03:08:41.659Z,99941.38
2019-03-24T03:11:10.234Z,99941.52
2019-03-24T03:13:38.704Z,99942.09
2019-03-24T03:16:07.200Z,99934.50
2019-03-24T03:18:35.665Z,99936.31
2019-03-24T03:21:04.331Z,99938.33
2019-03-24T03:23:32.869Z,99940.50
2019-03-24T03:26:01.356Z,99929.98
2019-03-24T03:28:29.893Z,99929.86
2019-03-24T03:30:58.393Z,99927.45
2019-03-24T03:33:26.901Z,99934.13
2019-03-24T03:35:55.401Z,99925.05
2019-03-24T03:38:23.857Z,99922.73
2019-03-24T03:40:52.370Z,99922.69
2019-03-24T03:43:20.825Z,99918.46
2019-03-24T03:45:49.316Z,99913.53
2019-03-24T03:48:17.805Z,99910.03
2019-03-24T03:50:46.281Z,99913.72
2019-03-24T03:53:14.753Z,99913.61
2019-03-24T03:55:43.248Z,99911.83
2019-03-24T03:58:11.709Z,99905.97
2019-03-24T04:00:40.267Z,99904.88
2019-03-24T04:03:08.805Z,99895.67
2019-03-24T04:05:37.292Z,99903.39
2019-03-24T04:08:06.096Z,99899.98
2019-03-24T04:10:34.658Z,99898.68
2019-03-24T04:13:03.154Z,99899.64
2019-03-24T04:15:31.592Z,99902.08
2019-03-24T04:18:00.093Z,99905.05
2019-03-24T04:20:28.562Z,99904.95
2019-03-24T04:22:57.051Z,99904.52
2019-03-24T04:25:25.520Z,99901.39
2019-03-24T04:27:54.006Z,99896.50
2019-03-24T04:30:22.474Z,99900.33
2019-03-24T04:32:50.960Z,99894.05
2019-03-24T04:35:19.435Z,99895.36
2019-03-24T04:37:47.929Z,99889.99
2019-03-24T04:40:16.402Z,99888.08
2019-03-24T04:42:44.892Z,99883.49
2019-03-24T04:45:13.703Z,99885.36
2019-03-24T04:47:42.246Z,99881.13
2019-03-24T04:50:11.122Z,99887.63
2019-03-24T04:52:39.803Z,99887.63
2019-03-24T04:55:08.803Z,99885.40
2019-03-24T04:57:37.301Z,99881.30
2019-03-24T05:00:09.667Z,99878.20
2019-03-24T05:02:38.163Z,99880.78
2019-03-24T05:05:07.985Z,99885.70
2019-03-24T05:07:36.816Z,99881.47
2019-03-24T05:10:06.828Z,99885.30
2019-03-24T05:12:35.311Z,99887.70
2019-03-24T05:15:03.775Z,99883.02
2019-03-24T05:17:32.261Z,99879.78
2019-03-24T05:20:00.731Z,99885.28
2019-03-24T05:22:29.219Z,99883.81
2019-03-24T05:24:57.690Z,99877.55
2019-03-24T05:27:26.177Z,99884.09
2019-03-24T05:29:54.647Z,99878.27
2019-03-24T05:32:23.136Z,99880.27
2019-03-24T05:34:51.601Z,99868.94
2019-03-24T05:37:20.088Z,99872.45
2019-03-24T05:39:48.554Z,99869.39
2019-03-24T05:42:17.044Z,99871.56
2019-03-24T05:44:45.513Z,99860.62
2019-03-24T05:47:14.002Z,99858.65
2019-03-24T05:49:42.464Z,99855.86
2019-03-24T05:52:10.958Z,99859.92
2019-03-24T05:54:39.534Z,99862.38
2019-03-24T05:57:08.027Z,99859.19
2019-03-24T05:59:36.491Z,99858.48
2019-03-24T06:02:04.980Z,99861.15
2019-03-24T06:04:33.443Z,99871.28
2019-03-24T06:07:01.938Z,99864.42
2019-03-24T06:09:30.398Z,99862.84
2019-03-24T06:11:58.884Z,99869.34
2019-03-24T06:14:27.342Z,99868.67
2019-03-24T06:16:55.844Z,99859.42
2019-03-24T06:19:24.316Z,99861.73
2019-03-24T06:21:52.809Z,99857.41
2019-03-24T06:24:21.277Z,99858.06
2019-03-24T06:26:49.770Z,99864.69
2019-03-24T06:29:18.239Z,99864.84
2019-03-24T06:31:46.728Z,99866.66
2019-03-24T06:34:15.192Z,99867.05
2019-03-24T06:36:43.689Z,99871.37
2019-03-24T06:39:12.165Z,99869.77
2019-03-24T06:41:40.627Z,99872.37
2019-03-24T06:44:09.123Z,99874.61
2019-03-24T06:46:37.591Z,99872.20
2019-03-24T06:49:06.093Z,99866.80
2019-03-24T06:51:34.552Z,99869.98
2019-03-24T06:54:03.044Z,99870.76
2019-03-24T06:56:31.512Z,99864.56
2019-03-24T06:59:00.005Z,99873.73
2019-03-24T07:01:28.484Z,99870.67
2019-03-24T07:03:56.971Z,99870.68
2019-03-24T07:06:25.447Z,99860.02
2019-03-24T07:08:53.931Z,99853.04
2019-03-24T07:11:22.395Z,99862.95
2019-03-24T07:13:50.895Z,99849.61
2019-03-24T07:16:19.366Z,99853.41
2019-03-24T07:18:47.883Z,99846.70
2019-03-24T07:21:16.359Z,99853.84
2019-03-24T07:23:44.849Z,99850.41
2019-03-24T07:26:13.319Z,99844.27
2019-03-24T07:28:42.099Z,99842.77
2019-03-24T07:31:10.575Z,99853.02
2019-03-24T07:33:39.659Z,99841.41
2019-03-24T07:36:08.115Z,99847.42
2019-03-24T07:38:36.613Z,99838.30
2019-03-24T07:41:05.152Z,99835.38
2019-03-24T07:43:33.758Z,99833.87
2019-03-24T07:48:57.249Z,99833.13
2019-03-24T07:51:32.474Z,99833.41
2019-03-24T07:54:00.986Z,99832.55
2019-03-24T07:56:29.529Z,99829.77
2019-03-24T07:58:58.202Z,99817.59
2019-03-24T08:01:26.872Z,99820.66
2019-03-24T08:03:55.379Z,99821.52
2019-03-24T08:06:27.046Z,99813.34
2019-03-24T08:08:55.570Z,99817.79
2019-03-24T08:11:24.119Z,99812.88
2019-03-24T08:13:53.991Z,99808.16
2019-03-24T08:16:35.020Z,99812.03
2019-03-24T08:19:03.736Z,99813.23
2019-03-24T08:21:32.386Z,99806.70
2019-03-24T08:24:01.006Z,99801.34
2019-03-24T08:26:30.057Z,99794.77
2019-03-24T08:29:01.916Z,99797.36
2019-03-24T08:31:30.728Z,99792.38
2019-03-24T08:33:59.652Z,99795.55
2019-03-24T08:36:29.132Z,99796.41
2019-03-24T08:38:57.632Z,99790.67
2019-03-24T08:41:26.150Z,99791.92
2019-03-24T08:43:54.824Z,99797.67
2019-03-24T08:46:23.302Z,99793.17
2019-03-24T08:48:51.855Z,99793.48
2019-03-24T08:51:20.360Z,99791.09
2019-03-24T08:54:36.869Z,99787.89
2019-03-24T08:59:59.733Z,99779.17
2019-03-24T09:02:28.280Z,99774.93
2019-03-24T09:04:56.870Z,99774.05
2019-03-24T09:07:25.375Z,99772.83
2019-03-24T09:09:54.021Z,99768.16
2019-03-24T09:12:22.516Z,99764.63
2019-03-24T09:14:55.035Z,99768.80
2019-03-24T09:17:41.330Z,99768.69
2019-03-24T09:20:10.579Z,99763.02
2019-03-24T09:22:39.069Z,99760.35
2019-03-24T09:25:10.028Z,99757.63
2019-03-24T09:27:38.620Z,99754.47
2019-03-24T09:30:27.648Z,99749.30
2019-03-24T09:32:56.139Z,99749.62
2019-03-24T09:35:24.634Z,99741.84
2019-03-24T09:37:53.256Z,99737.41
2019-03-24T09:40:27.221Z,99741.91
2019-03-24T09:42:57.038Z,99741.74
2019-03-24T09:45:25.605Z,99738.72
2019-03-24T09:47:54.068Z,99737.61
2019-03-24T09:50:22.566Z,99732.17
2019-03-24T09:52:51.033Z,99735.00
2019-03-24T09:55:19.531Z,99729.23
2019-03-24T09:57:48.938Z,99723.53
2019-03-24T10:00:17.532Z,99725.84
2019-03-24T10:02:46.005Z,99720.86
2019-03-24T10:05:15.241Z,99717.75
2019-03-24T10:07:43.720Z,99710.86
2019-03-24T10:10:14.312Z,99707.84
2019-03-24T10:12:42.771Z,99701.80
2019-03-24T10:15:12.752Z,99698.90
2019-03-24T10:17:41.234Z,99691.94
2019-03-24T10:20:10.769Z,99691.22
2019-03-24T10:22:39.232Z,99683.13
2019-03-24T10:25:07.791Z,99683.09
2019-03-24T10:27:36.254Z,99680.17
2019-03-24T10:30:06.987Z,99676.52
2019-03-24T10:32:35.465Z,99669.34
2019-03-24T10:35:05.504Z,99670.77
2019-03-24T10:37:33.983Z,99672.27
2019-03-24T10:40:02.501Z,99672.83
2019-03-24T10:42:30.959Z,99667.55
2019-03-24T10:44:59.478Z,99660.34
2019-03-24T10:47:27.948Z,99656.83
2019-03-24T10:49:56.457Z,99652.77
2019-03-24T10:52:24.933Z,99655.55
2019-03-24T10:54:53.426Z,99652.91
2019-03-24T10:57:21.922Z,99645.67
2019-03-24T10:59:50.417Z,99653.50
2019-03-24T11:02:18.890Z,99643.54
2019-03-24T11:04:47.397Z,99636.44
2019-03-24T11:07:15.867Z,99640.33
2019-03-24T11:09:45.161Z,99636.38
2019-03-24T11:12:13.799Z,99630.27
2019-03-24T11:14:42.300Z,99628.42
2019-03-24T11:17:10.757Z,99614.26
2019-03-24T11:19:39.230Z,99612.91
2019-03-24T11:22:07.735Z,99609.58
2019-03-24T11:24:36.223Z,99612.62
2019-03-24T11:27:04.731Z,99610.11
2019-03-24T11:29:33.200Z,99599.28
2019-03-24T11:32:01.710Z,99597.50
2019-03-24T11:34:30.189Z,99600.48
2019-03-24T11:36:58.698Z,99593.58
2019-03-24T11:39:27.183Z,99593.19
2019-03-24T11:41:55.683Z,99590.63
2019-03-24T11:44:24.213Z,99581.39
2019-03-24T11:46:52.802Z,99583.09
2019-03-24T11:49:21.438Z,99581.03
2019-03-24T11:51:49.927Z,99570.44
2019-03-24T11:54:18.403Z,99562.70
2019-03-24T11:56:46.900Z,99559.45
2019-03-24T11:59:15.442Z,99560.48
2019-03-24T12:01:43.938Z,99552.39
2019-03-24T12:04:12.405Z,99543.99
2019-03-24T12:06:40.896Z,99540.81
2019-03-24T12:09:09.373Z,99536.20
2019-03-24T12:11:37.867Z,99530.09
2019-03-24T12:14:06.345Z,99525.88
2019-03-24T12:16:34.904Z,99521.72
2019-03-24T12:19:03.369Z,99516.52
2019-03-24T12:21:31.869Z,99515.67
2019-03-24T12:24:00.338Z,99503.89
2019-03-24T12:26:28.834Z,99505.11
2019-03-24T12:28:57.339Z,99509.23
2019-03-24T12:31:25.807Z,99509.23
2019-03-24T12:33:54.292Z,99505.91
2019-03-24T12:36:22.796Z,99499.25
2019-03-24T12:38:51.273Z,99500.91
2019-03-24T12:41:19.776Z,99497.33
2019-03-24T12:43:48.247Z,99495.97
2019-03-24T12:46:16.751Z,99490.03
2019-03-24T12:48:45.228Z,99485.31
2019-03-24T12:51:13.725Z,99476.58
2019-03-24T12:53:42.196Z,99484.00
2019-03-24T12:56:10.694Z,99481.48
2019-03-24T12:58:39.161Z,99476.87
2019-03-24T13:01:07.653Z,99474.56
2019-03-24T13:03:36.130Z,99469.19
2019-03-24T13:06:04.800Z,99469.27
2019-03-24T13:08:33.316Z,99465.02
2019-03-24T13:11:01.814Z,99460.03
2019-03-24T13:13:30.297Z,99461.06
2019-03-24T13:15:59.642Z,99457.30
2019-03-24T13:18:28.126Z,99453.81
2019-03-24T13:20:56.628Z,99448.29
2019-03-24T13:23:25.101Z,99451.70
2019-03-24T13:25:53.605Z,99439.88
2019-03-24T13:28:22.073Z,99440.81
2019-03-24T13:30:50.550Z,99443.02
2019-03-24T13:33:19.047Z,99439.30
2019-03-24T13:35:49.160Z,99436.63
2019-03-24T13:38:17.655Z,99434.86
2019-03-24T13:40:46.127Z,99434.83
2019-03-24T13:43:14.624Z,99430.56
2019-03-24T13:45:43.092Z,99428.75
2019-03-24T13:48:11.593Z,99424.66
2019-03-24T13:50:40.063Z,99423.06
2019-03-24T13:53:08.631Z,99419.81
2019-03-24T13:55:37.093Z,99414.72
2019-03-24T13:58:06.365Z,99418.95
2019-03-24T14:00:34.841Z,99409.69
2019-03-24T14:03:03.409Z,99403.08
2019-03-24T14:05:31.986Z,99387.98
2019-03-24T14:08:00.483Z,99385.98
2019-03-24T14:10:28.952Z,99389.06
2019-03-24T14:12:57.457Z,99389.83
2019-03-24T14:15:25.933Z,99391.45
2019-03-24T14:17:54.423Z,99393.34
2019-03-24T14:20:22.889Z,99399.25
2019-03-24T14:22:51.382Z,99390.56
2019-03-24T14:25:19.849Z,99395.20
2019-03-24T14:27:48.342Z,99405.02
2019-03-24T14:30:18.592Z,99395.60
2019-03-24T14:32:47.171Z,99406.44
2019-03-24T14:35:15.669Z,99397.73
2019-03-24T14:37:44.147Z,99387.66
2019-03-24T14:40:14.438Z,99387.83
2019-03-24T14:42:42.933Z,99393.89
2019-03-24T14:45:11.741Z,99390.29
2019-03-24T14:47:40.310Z,99388.36
2019-03-24T14:50:09.327Z,99389.08
2019-03-24T14:52:37.830Z,99388.66
2019-03-24T14:55:06.532Z,99378.78
2019-03-24T14:57:35.040Z,99374.94
2019-03-24T15:00:04.944Z,99375.54
2019-03-24T15:02:33.436Z,99370.09
2019-03-24T15:05:01.901Z,99375.41
2019-03-24T15:07:30.412Z,99373.52
2019-03-24T15:09:58.887Z,99367.16
2019-03-24T15:12:27.378Z,99361.31
2019-03-24T15:14:55.886Z,99364.23
2019-03-24T15:17:27.207Z,99366.88
2019-03-24T15:19:55.686Z,99361.20
2019-03-24T15:22:24.182Z,99354.55
2019-03-24T15:24:52.651Z,99350.61
2019-03-24T15:27:21.144Z,99346.07
2019-03-24T15:29:49.615Z,99351.91
2019-03-24T15:32:18.121Z,99353.63
2019-03-24T15:34:46.621Z,99346.48
2019-03-24T15:37:15.112Z,99347.69
2019-03-24T15:39:43.585Z,99354.74
2019-03-24T15:42:12.081Z,99348.08
2019-03-24T15:44:40.548Z,99347.17
2019-03-24T15:47:09.043Z,99341.65
2019-03-24T15:49:37.513Z,99343.19
2019-03-24T15:52:06.017Z,99343.55
2019-03-24T15:54:34.484Z,99340.94
2019-03-24T15:57:02.994Z,99335.69
2019-03-24T15:59:31.534Z,99337.27
2019-03-24T16:02:00.009Z,99334.96
2019-03-24T16:04:28.504Z,99330.23
2019-03-24T16:06:56.979Z,99324.67
2019-03-24T16:09:25.557Z,99325.98
2019-03-24T16:11:54.033Z,99311.17
2019-03-24T16:14:22.532Z,99310.16
2019-03-24T16:16:51.001Z,99303.30
2019-03-24T16:19:19.488Z,99312.64
2019-03-24T16:21:47.957Z,99315.30
2019-03-24T16:24:16.451Z,99322.17
2019-03-24T16:26:44.924Z,99317.41
2019-03-24T16:29:13.410Z,99313.47
2019-03-24T16:31:41.884Z,99310.27
2019-03-24T16:34:10.393Z,99309.66
2019-03-24T16:36:38.878Z,99303.59
2019-03-24T16:39:10.336Z,99305.91
2019-03-24T16:41:38.814Z,99289.27
2019-03-24T16:44:07.306Z,99286.75
2019-03-24T16:46:35.785Z,99287.86
2019-03-24T16:49:04.320Z,99278.09
2019-03-24T16:51:38.558Z,99271.28
2019-03-24T16:54:03.005Z,99262.92
2019-03-24T16:56:31.536Z,99264.95
2019-03-24T16:59:00.038Z,99265.63
2019-03-24T17:01:28.506Z,99257.64
2019-03-24T17:03:57.004Z,99264.88
2019-03-24T17:06:25.469Z,99264.94
2019-03-24T17:08:53.954Z,99259.55
2019-03-24T17:11:22.432Z,99262.35
2019-03-24T17:13:50.912Z,99260.20
2019-03-24T17:16:19.393Z,99257.67
2019-03-24T17:18:47.877Z,99259.75
2019-03-24T17:21:16.351Z,99258.55
2019-03-24T17:23:44.840Z,99261.98
2019-03-24T17:26:13.309Z,99257.52
2019-03-24T17:28:41.807Z,99263.72
2019-03-24T17:31:10.273Z,99269.14
2019-03-24T17:33:38.775Z,99267.55
2019-03-24T17:36:07.422Z,99268.67
2019-03-24T17:38:35.918Z,99270.05
2019-03-24T17:41:04.390Z,99274.67
2019-03-24T17:43:32.882Z,99262.16
2019-03-24T17:46:01.358Z,99263.19
2019-03-24T17:48:29.853Z,99263.78
2019-03-24T17:50:58.333Z,99261.48
2019-03-24T17:53:26.817Z,99265.76
2019-03-24T17:55:55.354Z,99267.28
2019-03-24T17:58:23.848Z,99262.79
2019-03-24T18:00:53.964Z,99266.41
2019-03-24T18:03:22.459Z,99262.97
2019-03-24T18:05:51.100Z,99264.91
2019-03-24T18:08:19.603Z,99258.97
2019-03-24T18:10:48.062Z,99260.26
2019-03-24T18:13:16.556Z,99265.22
2019-03-24T18:15:45.020Z,99260.42
2019-03-24T18:18:13.513Z,99263.68
2019-03-24T18:20:41.990Z,99269.63
2019-03-24T18:23:10.471Z,99263.36
2019-03-24T18:25:38.936Z,99265.05
2019-03-24T18:28:07.406Z,99264.95
2019-03-24T18:30:35.886Z,99258.61
2019-03-24T18:33:04.487Z,99256.41
2019-03-24T18:35:33.050Z,99253.52
2019-03-24T18:38:01.515Z,99251.94
2019-03-24T18:40:30.015Z,99245.78
2019-03-24T18:42:58.476Z,99248.66
2019-03-24T18:45:26.971Z,99247.81
2019-03-24T18:47:55.427Z,99248.90
2019-03-24T18:50:23.916Z,99241.91
2019-03-24T18:52:52.381Z,99241.34
2019-03-24T18:55:20.868Z,99236.66
2019-03-24T18:57:49.335Z,99249.08
2019-03-24T19:00:18.878Z,99247.39
2019-03-24T19:02:47.337Z,99243.04
2019-03-24T19:05:15.966Z,99241.88
2019-03-24T19:07:44.432Z,99239.69
2019-03-24T19:10:14.874Z,99241.26
2019-03-24T19:12:43.340Z,99238.78
2019-03-24T19:15:14.780Z,99235.44
2019-03-24T19:17:43.243Z,99231.23
2019-03-24T19:20:12.078Z,99235.27
2019-03-24T19:22:40.718Z,99230.52
2019-03-24T19:25:10.242Z,99227.95
2019-03-24T19:27:39.058Z,99230.17
2019-03-24T19:30:10.602Z,99226.72
2019-03-24T19:32:39.149Z,99228.17
2019-03-24T19:35:08.485Z,99225.04
2019-03-24T19:37:37.483Z,99221.89
2019-03-24T19:40:09.151Z,99219.27
2019-03-24T19:42:37.907Z,99213.92
2019-03-24T19:45:06.927Z,99210.36
2019-03-24T19:47:35.736Z,99211.28
2019-03-24T19:50:07.130Z,99201.64
2019-03-24T19:52:44.407Z,99199.86
2019-03-24T19:55:07.644Z,99205.88
2019-03-24T19:57:36.485Z,99200.82
2019-03-24T20:00:06.969Z,99208.91
2019-03-24T20:02:35.788Z,99208.47
2019-03-24T20:05:05.581Z,99196.81
2019-03-24T20:07:34.401Z,99193.97
2019-03-24T20:10:03.382Z,99198.55
2019-03-24T20:12:31.849Z,99200.47
2019-03-24T20:15:00.380Z,99194.88
2019-03-24T20:17:28.811Z,99191.22
2019-03-24T20:19:57.300Z,99184.16
2019-03-24T20:22:25.773Z,99185.74
2019-03-24T20:24:54.261Z,99180.76
2019-03-24T20:27:22.736Z,99175.47
2019-03-24T20:29:51.240Z,99172.22
2019-03-24T20:32:19.716Z,99177.06
2019-03-24T20:34:48.205Z,99171.69
2019-03-24T20:37:16.677Z,99163.85
2019-03-24T20:39:45.219Z,99165.41
2019-03-24T20:42:13.736Z,99169.02
2019-03-24T20:44:42.179Z,99173.33
2019-03-24T20:47:10.646Z,99167.30
2019-03-24T20:49:39.132Z,99160.28
2019-03-24T20:52:07.606Z,99155.38
2019-03-24T20:54:36.099Z,99154.47
2019-03-24T20:57:04.638Z,99152.59
2019-03-24T20:59:33.142Z,99151.91
2019-03-24T21:02:01.617Z,99146.61
2019-03-24T21:04:30.109Z,99143.17
2019-03-24T21:06:58.577Z,99135.94
2019-03-24T21:09:27.070Z,99130.16
2019-03-24T21:11:55.540Z,99129.33
2019-03-24T21:14:24.000Z,99130.28
2019-03-24T21:16:52.490Z,99132.45
2019-03-24T21:19:20.955Z,99131.48
2019-03-24T21:21:49.461Z,99133.02
2019-03-24T21:24:17.928Z,99127.21
2019-03-24T21:26:46.419Z,99127.72
2019-03-24T21:29:14.881Z,99123.86
2019-03-24T21:31:43.378Z,99122.03
2019-03-24T21:34:11.851Z,99117.42
2019-03-24T21:36:40.341Z,99117.42
2019-03-24T21:39:08.944Z,99119.52
2019-03-24T21:41:37.433Z,99114.34
2019-03-24T21:44:05.904Z,99114.93
2019-03-24T21:46:34.394Z,99117.11
2019-03-24T21:49:02.865Z,99101.28
2019-03-24T21:51:31.354Z,99105.89
2019-03-24T21:53:59.824Z,99106.54
2019-03-24T21:56:28.318Z,99105.55
2019-03-24T21:58:56.777Z,99109.65
2019-03-24T22:01:25.271Z,99106.15
2019-03-24T22:03:53.740Z,99111.41
2019-03-24T22:06:22.227Z,99106.31
2019-03-24T22:08:50.689Z,99099.70
2019-03-24T22:11:19.191Z,99098.75
2019-03-24T22:13:47.654Z,99105.88
2019-03-24T22:16:16.142Z,99101.79
2019-03-24T22:18:44.620Z,99091.75
2019-03-24T22:21:13.108Z,99093.08
2019-03-24T22:23:51.815Z,99091.52
2019-03-24T22:26:11.800Z,99095.33
2019-03-24T22:28:40.264Z,99100.95
2019-03-24T22:31:08.798Z,99103.70
2019-03-24T22:33:37.225Z,99101.68
2019-03-24T22:36:05.727Z,99098.50
2019-03-24T22:38:34.194Z,99101.50
2019-03-24T22:41:03.069Z,99096.34
2019-03-24T22:43:31.529Z,99106.36
2019-03-24T22:46:00.032Z,99095.98
2019-03-24T22:48:28.508Z,99102.09
2019-03-24T22:50:56.997Z,99098.93
2019-03-24T22:53:25.462Z,99096.09
2019-03-24T22:55:53.952Z,99091.92
2019-03-24T22:58:22.423Z,99095.35
2019-03-24T23:00:53.929Z,99091.23
2019-03-24T23:03:25.071Z,99091.06
2019-03-24T23:05:53.290Z,99084.90
2019-03-24T23:08:21.819Z,99080.11
2019-03-24T23:10:50.387Z,99079.22
2019-03-24T23:13:18.865Z,99070.90
2019-03-24T23:15:47.352Z,99069.50
2019-03-24T23:18:15.821Z,99055.52
2019-03-24T23:20:44.387Z,99052.12
2019-03-24T23:23:12.862Z,99054.10
2019-03-24T23:25:41.423Z,99048.95
2019-03-24T23:28:09.882Z,99047.87
2019-03-24T23:30:38.378Z,99039.86
2019-03-24T23:33:06.925Z,99040.02
2019-03-24T23:35:35.417Z,99040.02
2019-03-24T23:38:03.884Z,99032.93
2019-03-24T23:40:32.373Z,99020.61
2019-03-24T23:43:00.836Z,99019.25
2019-03-24T23:45:29.332Z,99010.95
2019-03-24T23:47:57.798Z,99007.42
2019-03-24T23:50:26.262Z,99012.59
2019-03-24T23:52:54.797Z,99009.91
2019-03-24T23:55:23.225Z,99000.45
2019-03-24T23:57:51.716Z,98993.73
